sensor_id;sensor_type;location;lat;lon;timestamp;temperature;humidity
23703;DHT22;12030;50.376;8.762;2023-06-01T00:01:32;13.60;99.90
23703;DHT22;12030;50.376;8.762;2023-06-01T00:04:01;13.60;99.90
23703;DHT22;12030;50.376;8.762;2023-06-01T00:06:27;13.60;99.90
23703;DHT22;12030;50.376;8.762;2023-06-01T00:08:54;13.60;99.90
23703;DHT22;12030;50.376;8.762;2023-06-01T00:11:20;13.70;99.90
23703;DHT22;12030;50.376;8.762;2023-06-01T00:13:47;13.70;99.90
23703;DHT22;12030;50.376;8.762;2023-06-01T00:16:13;13.70;99.90
23703;DHT22;12030;50.376;8.762;2023-06-01T00:18:39;13.60;99.90
23703;DHT22;12030;50.376;8.762;2023-06-01T00:21:05;13.60;99.90
23703;DHT22;12030;50.376;8.762;2023-06-01T00:23:31;13.60;99.90
23703;DHT22;12030;50.376;8.762;2023-06-01T00:25:57;13.50;99.90
23703;DHT22;12030;50.376;8.762;2023-06-01T00:28:22;13.50;99.90
23703;DHT22;12030;50.376;8.762;2023-06-01T00:30:48;13.50;99.90
23703;DHT22;12030;50.376;8.762;2023-06-01T00:33:14;13.50;99.90
23703;DHT22;12030;50.376;8.762;2023-06-01T00:35:39;13.50;99.90
23703;DHT22;12030;50.376;8.762;2023-06-01T00:38:06;13.50;99.90
23703;DHT22;12030;50.376;8.762;2023-06-01T00:40:33;13.50;99.90
23703;DHT22;12030;50.376;8.762;2023-06-01T00:42:58;13.50;99.90
23703;DHT22;12030;50.376;8.762;2023-06-01T00:45:24;13.50;99.90
23703;DHT22;12030;50.376;8.762;2023-06-01T00:47:49;13.40;99.90
23703;DHT22;12030;50.376;8.762;2023-06-01T00:50:15;13.40;99.90
23703;DHT22;12030;50.376;8.762;2023-06-01T00:52:42;13.50;99.90
23703;DHT22;12030;50.376;8.762;2023-06-01T00:55:09;13.50;99.90
23703;DHT22;12030;50.376;8.762;2023-06-01T00:57:35;13.50;99.90
23703;DHT22;12030;50.376;8.762;2023-06-01T01:00:02;13.50;99.90
23703;DHT22;12030;50.376;8.762;2023-06-01T01:02:37;13.50;99.90
23703;DHT22;12030;50.376;8.762;2023-06-01T01:05:08;13.50;99.90
23703;DHT22;12030;50.376;8.762;2023-06-01T01:07:55;13.40;99.90
23703;DHT22;12030;50.376;8.762;2023-06-01T01:10:32;13.40;99.90
23703;DHT22;12030;50.376;8.762;2023-06-01T01:16:26;13.40;99.90
23703;DHT22;12030;50.376;8.762;2023-06-01T01:19:10;13.40;99.90
23703;DHT22;12030;50.376;8.762;2023-06-01T01:21:38;13.30;99.90
23703;DHT22;12030;50.376;8.762;2023-06-01T01:24:23;13.20;99.90
23703;DHT22;12030;50.376;8.762;2023-06-01T01:29:38;13.10;99.90
23703;DHT22;12030;50.376;8.762;2023-06-01T01:32:06;13.20;99.90
23703;DHT22;12030;50.376;8.762;2023-06-01T01:34:32;13.20;99.90
23703;DHT22;12030;50.376;8.762;2023-06-01T01:36:59;13.20;99.90
23703;DHT22;12030;50.376;8.762;2023-06-01T01:39:25;13.10;99.90
23703;DHT22;12030;50.376;8.762;2023-06-01T01:41:50;13.10;99.90
23703;DHT22;12030;50.376;8.762;2023-06-01T01:44:16;13.00;99.90
23703;DHT22;12030;50.376;8.762;2023-06-01T01:46:52;12.90;99.90
23703;DHT22;12030;50.376;8.762;2023-06-01T01:49:35;12.90;99.90
23703;DHT22;12030;50.376;8.762;2023-06-01T01:54:41;12.70;99.90
23703;DHT22;12030;50.376;8.762;2023-06-01T01:57:08;12.70;99.90
23703;DHT22;12030;50.376;8.762;2023-06-01T01:59:35;12.70;99.90
23703;DHT22;12030;50.376;8.762;2023-06-01T02:02:01;12.70;99.90
23703;DHT22;12030;50.376;8.762;2023-06-01T02:04:27;12.70;99.90
23703;DHT22;12030;50.376;8.762;2023-06-01T02:06:52;12.70;99.90
23703;DHT22;12030;50.376;8.762;2023-06-01T02:09:18;12.70;99.90
23703;DHT22;12030;50.376;8.762;2023-06-01T02:11:44;12.70;99.90
23703;DHT22;12030;50.376;8.762;2023-06-01T02:14:09;12.60;99.90
23703;DHT22;12030;50.376;8.762;2023-06-01T02:16:35;12.60;99.90
23703;DHT22;12030;50.376;8.762;2023-06-01T02:19:01;12.50;99.90
23703;DHT22;12030;50.376;8.762;2023-06-01T02:21:28;12.50;99.90
23703;DHT22;12030;50.376;8.762;2023-06-01T02:23:53;12.50;99.90
23703;DHT22;12030;50.376;8.762;2023-06-01T02:26:19;12.50;99.90
23703;DHT22;12030;50.376;8.762;2023-06-01T02:28:45;12.50;99.90
23703;DHT22;12030;50.376;8.762;2023-06-01T02:31:10;12.50;99.90
23703;DHT22;12030;50.376;8.762;2023-06-01T02:33:38;12.50;99.90
23703;DHT22;12030;50.376;8.762;2023-06-01T02:36:03;12.50;99.90
23703;DHT22;12030;50.376;8.762;2023-06-01T02:38:30;12.50;99.90
23703;DHT22;12030;50.376;8.762;2023-06-01T02:40:55;12.50;99.90
23703;DHT22;12030;50.376;8.762;2023-06-01T02:43:21;12.40;99.90
23703;DHT22;12030;50.376;8.762;2023-06-01T02:45:47;12.40;99.90
23703;DHT22;12030;50.376;8.762;2023-06-01T02:48:12;12.30;99.90
23703;DHT22;12030;50.376;8.762;2023-06-01T02:50:38;12.30;99.90
23703;DHT22;12030;50.376;8.762;2023-06-01T02:53:03;12.30;99.90
23703;DHT22;12030;50.376;8.762;2023-06-01T02:55:30;12.30;99.90
23703;DHT22;12030;50.376;8.762;2023-06-01T02:57:56;12.20;99.90
23703;DHT22;12030;50.376;8.762;2023-06-01T03:00:21;12.10;99.90
23703;DHT22;12030;50.376;8.762;2023-06-01T03:02:47;12.00;99.90
23703;DHT22;12030;50.376;8.762;2023-06-01T03:05:14;12.00;99.90
23703;DHT22;12030;50.376;8.762;2023-06-01T03:07:44;12.00;99.90
23703;DHT22;12030;50.376;8.762;2023-06-01T03:10:10;12.00;99.90
23703;DHT22;12030;50.376;8.762;2023-06-01T03:12:36;12.00;99.90
23703;DHT22;12030;50.376;8.762;2023-06-01T03:15:02;12.00;99.90
23703;DHT22;12030;50.376;8.762;2023-06-01T03:17:28;12.00;99.90
23703;DHT22;12030;50.376;8.762;2023-06-01T03:19:53;12.00;99.90
23703;DHT22;12030;50.376;8.762;2023-06-01T03:22:19;11.90;99.90
23703;DHT22;12030;50.376;8.762;2023-06-01T03:24:45;12.00;99.90
23703;DHT22;12030;50.376;8.762;2023-06-01T03:27:15;12.00;99.90
23703;DHT22;12030;50.376;8.762;2023-06-01T03:29:41;12.10;99.90
23703;DHT22;12030;50.376;8.762;2023-06-01T03:32:07;12.10;99.90
23703;DHT22;12030;50.376;8.762;2023-06-01T03:34:32;12.10;99.90
23703;DHT22;12030;50.376;8.762;2023-06-01T03:37:02;12.20;99.90
23703;DHT22;12030;50.376;8.762;2023-06-01T03:39:29;12.20;99.90
23703;DHT22;12030;50.376;8.762;2023-06-01T03:41:58;12.20;99.90
23703;DHT22;12030;50.376;8.762;2023-06-01T03:44:24;12.20;99.90
23703;DHT22;12030;50.376;8.762;2023-06-01T03:46:49;12.30;99.90
23703;DHT22;12030;50.376;8.762;2023-06-01T03:49:15;12.30;99.90
23703;DHT22;12030;50.376;8.762;2023-06-01T03:51:41;12.30;99.90
23703;DHT22;12030;50.376;8.762;2023-06-01T03:54:06;12.30;99.90
23703;DHT22;12030;50.376;8.762;2023-06-01T03:56:32;12.40;99.90
23703;DHT22;12030;50.376;8.762;2023-06-01T03:58:58;12.40;99.90
23703;DHT22;12030;50.376;8.762;2023-06-01T04:01:23;12.40;99.90
23703;DHT22;12030;50.376;8.762;2023-06-01T04:03:49;12.50;99.90
23703;DHT22;12030;50.376;8.762;2023-06-01T04:06:15;12.50;99.90
23703;DHT22;12030;50.376;8.762;2023-06-01T04:08:45;12.50;99.90
23703;DHT22;12030;50.376;8.762;2023-06-01T04:11:16;12.60;99.90
23703;DHT22;12030;50.376;8.762;2023-06-01T04:13:42;12.60;99.90
23703;DHT22;12030;50.376;8.762;2023-06-01T04:16:09;12.60;99.90
23703;DHT22;12030;50.376;8.762;2023-06-01T04:18:35;12.60;99.90
23703;DHT22;12030;50.376;8.762;2023-06-01T04:21:00;12.70;99.90
23703;DHT22;12030;50.376;8.762;2023-06-01T04:23:26;12.70;99.90
23703;DHT22;12030;50.376;8.762;2023-06-01T04:25:51;12.70;99.90
23703;DHT22;12030;50.376;8.762;2023-06-01T04:28:17;12.70;99.90
23703;DHT22;12030;50.376;8.762;2023-06-01T04:30:43;12.60;99.90
23703;DHT22;12030;50.376;8.762;2023-06-01T04:33:13;12.70;99.90
23703;DHT22;12030;50.376;8.762;2023-06-01T04:35:39;12.70;99.90
23703;DHT22;12030;50.376;8.762;2023-06-01T04:38:04;12.70;99.90
23703;DHT22;12030;50.376;8.762;2023-06-01T04:40:30;12.70;99.90
23703;DHT22;12030;50.376;8.762;2023-06-01T04:42:55;12.70;99.90
23703;DHT22;12030;50.376;8.762;2023-06-01T04:45:24;12.80;99.90
23703;DHT22;12030;50.376;8.762;2023-06-01T04:47:51;12.80;99.90
23703;DHT22;12030;50.376;8.762;2023-06-01T04:50:17;12.80;99.90
23703;DHT22;12030;50.376;8.762;2023-06-01T04:52:43;12.90;99.90
23703;DHT22;12030;50.376;8.762;2023-06-01T04:55:10;12.90;99.90
23703;DHT22;12030;50.376;8.762;2023-06-01T04:57:38;13.00;99.90
23703;DHT22;12030;50.376;8.762;2023-06-01T05:00:14;13.10;99.90
23703;DHT22;12030;50.376;8.762;2023-06-01T05:02:40;13.20;99.90
23703;DHT22;12030;50.376;8.762;2023-06-01T05:05:06;13.30;99.90
23703;DHT22;12030;50.376;8.762;2023-06-01T05:07:33;13.30;99.90
23703;DHT22;12030;50.376;8.762;2023-06-01T05:09:58;13.40;99.90
23703;DHT22;12030;50.376;8.762;2023-06-01T05:12:29;13.50;99.90
23703;DHT22;12030;50.376;8.762;2023-06-01T05:14:55;13.60;99.90
23703;DHT22;12030;50.376;8.762;2023-06-01T05:17:20;13.70;99.90
23703;DHT22;12030;50.376;8.762;2023-06-01T05:19:46;13.90;99.90
23703;DHT22;12030;50.376;8.762;2023-06-01T05:22:11;13.90;99.90
23703;DHT22;12030;50.376;8.762;2023-06-01T05:24:37;14.00;99.90
23703;DHT22;12030;50.376;8.762;2023-06-01T05:27:03;14.20;99.90
23703;DHT22;12030;50.376;8.762;2023-06-01T05:29:29;14.30;99.90
23703;DHT22;12030;50.376;8.762;2023-06-01T05:31:54;14.40;99.90
23703;DHT22;12030;50.376;8.762;2023-06-01T05:34:20;14.50;99.90
23703;DHT22;12030;50.376;8.762;2023-06-01T05:36:46;14.50;99.90
23703;DHT22;12030;50.376;8.762;2023-06-01T05:39:12;14.70;99.90
23703;DHT22;12030;50.376;8.762;2023-06-01T05:41:37;14.70;99.90
23703;DHT22;12030;50.376;8.762;2023-06-01T05:44:04;14.80;99.90
23703;DHT22;12030;50.376;8.762;2023-06-01T05:46:29;14.90;99.90
23703;DHT22;12030;50.376;8.762;2023-06-01T05:48:55;15.00;99.90
23703;DHT22;12030;50.376;8.762;2023-06-01T05:51:21;15.20;99.90
23703;DHT22;12030;50.376;8.762;2023-06-01T05:53:46;15.30;99.90
23703;DHT22;12030;50.376;8.762;2023-06-01T05:56:12;15.40;99.90
23703;DHT22;12030;50.376;8.762;2023-06-01T05:58:38;15.50;99.90
23703;DHT22;12030;50.376;8.762;2023-06-01T06:01:03;15.60;99.90
23703;DHT22;12030;50.376;8.762;2023-06-01T06:03:29;15.70;99.90
23703;DHT22;12030;50.376;8.762;2023-06-01T06:05:54;15.80;99.90
23703;DHT22;12030;50.376;8.762;2023-06-01T06:08:20;15.90;99.90
23703;DHT22;12030;50.376;8.762;2023-06-01T06:10:45;16.00;99.90
23703;DHT22;12030;50.376;8.762;2023-06-01T06:13:11;16.20;99.90
23703;DHT22;12030;50.376;8.762;2023-06-01T06:15:37;16.30;99.90
23703;DHT22;12030;50.376;8.762;2023-06-01T06:18:02;16.40;99.90
23703;DHT22;12030;50.376;8.762;2023-06-01T06:20:28;16.50;99.90
23703;DHT22;12030;50.376;8.762;2023-06-01T06:22:53;16.60;99.90
23703;DHT22;12030;50.376;8.762;2023-06-01T06:25:19;16.70;99.90
23703;DHT22;12030;50.376;8.762;2023-06-01T06:27:45;16.80;99.90
23703;DHT22;12030;50.376;8.762;2023-06-01T06:30:12;16.80;99.90
23703;DHT22;12030;50.376;8.762;2023-06-01T06:32:37;17.00;99.90
23703;DHT22;12030;50.376;8.762;2023-06-01T06:35:03;17.00;99.90
23703;DHT22;12030;50.376;8.762;2023-06-01T06:37:29;17.10;99.90
23703;DHT22;12030;50.376;8.762;2023-06-01T06:39:55;17.20;99.90
23703;DHT22;12030;50.376;8.762;2023-06-01T06:42:22;17.30;99.90
23703;DHT22;12030;50.376;8.762;2023-06-01T06:44:48;17.30;99.90
23703;DHT22;12030;50.376;8.762;2023-06-01T06:47:14;17.40;99.90
23703;DHT22;12030;50.376;8.762;2023-06-01T06:49:44;17.70;99.90
23703;DHT22;12030;50.376;8.762;2023-06-01T06:52:09;17.60;99.90
23703;DHT22;12030;50.376;8.762;2023-06-01T06:54:38;17.70;99.90
23703;DHT22;12030;50.376;8.762;2023-06-01T06:57:04;17.80;99.90
23703;DHT22;12030;50.376;8.762;2023-06-01T06:59:30;17.90;99.90
23703;DHT22;12030;50.376;8.762;2023-06-01T07:01:55;18.00;99.90
23703;DHT22;12030;50.376;8.762;2023-06-01T07:04:21;18.10;99.90
23703;DHT22;12030;50.376;8.762;2023-06-01T07:06:46;18.20;99.90
23703;DHT22;12030;50.376;8.762;2023-06-01T07:09:12;18.20;99.90
23703;DHT22;12030;50.376;8.762;2023-06-01T07:11:38;18.30;99.90
23703;DHT22;12030;50.376;8.762;2023-06-01T07:14:04;18.40;99.90
23703;DHT22;12030;50.376;8.762;2023-06-01T07:16:30;18.50;99.90
23703;DHT22;12030;50.376;8.762;2023-06-01T07:18:55;18.60;99.90
23703;DHT22;12030;50.376;8.762;2023-06-01T07:21:22;18.70;99.90
23703;DHT22;12030;50.376;8.762;2023-06-01T07:23:47;18.80;99.90
23703;DHT22;12030;50.376;8.762;2023-06-01T07:26:13;18.90;99.90
23703;DHT22;12030;50.376;8.762;2023-06-01T07:28:38;19.00;99.90
23703;DHT22;12030;50.376;8.762;2023-06-01T07:31:05;19.10;99.90
23703;DHT22;12030;50.376;8.762;2023-06-01T07:33:31;19.20;99.90
23703;DHT22;12030;50.376;8.762;2023-06-01T07:35:58;19.30;99.90
23703;DHT22;12030;50.376;8.762;2023-06-01T07:38:24;19.40;99.90
23703;DHT22;12030;50.376;8.762;2023-06-01T07:40:51;19.50;99.90
23703;DHT22;12030;50.376;8.762;2023-06-01T07:43:16;19.60;99.90
23703;DHT22;12030;50.376;8.762;2023-06-01T07:45:42;19.80;99.90
23703;DHT22;12030;50.376;8.762;2023-06-01T07:48:08;19.80;99.90
23703;DHT22;12030;50.376;8.762;2023-06-01T07:50:33;20.00;99.90
23703;DHT22;12030;50.376;8.762;2023-06-01T07:52:59;20.00;99.90
23703;DHT22;12030;50.376;8.762;2023-06-01T07:55:24;20.00;99.90
23703;DHT22;12030;50.376;8.762;2023-06-01T07:57:51;20.10;99.90
23703;DHT22;12030;50.376;8.762;2023-06-01T08:00:17;20.20;99.90
23703;DHT22;12030;50.376;8.762;2023-06-01T08:02:44;20.30;99.90
23703;DHT22;12030;50.376;8.762;2023-06-01T08:05:10;20.40;99.90
23703;DHT22;12030;50.376;8.762;2023-06-01T08:07:37;20.50;99.90
23703;DHT22;12030;50.376;8.762;2023-06-01T08:10:04;20.50;99.90
23703;DHT22;12030;50.376;8.762;2023-06-01T08:12:32;20.60;99.90
23703;DHT22;12030;50.376;8.762;2023-06-01T08:14:58;20.60;99.90
23703;DHT22;12030;50.376;8.762;2023-06-01T08:17:24;20.80;99.90
23703;DHT22;12030;50.376;8.762;2023-06-01T08:19:50;20.80;99.90
23703;DHT22;12030;50.376;8.762;2023-06-01T08:22:16;20.90;99.90
23703;DHT22;12030;50.376;8.762;2023-06-01T08:24:42;21.00;99.90
23703;DHT22;12030;50.376;8.762;2023-06-01T08:27:22;21.10;99.90
23703;DHT22;12030;50.376;8.762;2023-06-01T08:29:49;21.20;99.90
23703;DHT22;12030;50.376;8.762;2023-06-01T08:32:15;21.30;99.90
23703;DHT22;12030;50.376;8.762;2023-06-01T08:34:43;21.40;99.90
23703;DHT22;12030;50.376;8.762;2023-06-01T08:37:09;21.50;99.90
23703;DHT22;12030;50.376;8.762;2023-06-01T08:39:34;21.60;99.90
23703;DHT22;12030;50.376;8.762;2023-06-01T08:42:07;21.60;99.90
23703;DHT22;12030;50.376;8.762;2023-06-01T08:44:37;21.80;99.90
23703;DHT22;12030;50.376;8.762;2023-06-01T08:47:04;21.90;99.90
23703;DHT22;12030;50.376;8.762;2023-06-01T08:49:34;21.90;99.90
23703;DHT22;12030;50.376;8.762;2023-06-01T08:52:04;22.10;99.90
23703;DHT22;12030;50.376;8.762;2023-06-01T08:54:32;22.00;99.90
23703;DHT22;12030;50.376;8.762;2023-06-01T08:57:04;22.10;99.40
23703;DHT22;12030;50.376;8.762;2023-06-01T08:59:31;22.30;99.90
23703;DHT22;12030;50.376;8.762;2023-06-01T09:01:57;22.30;99.50
23703;DHT22;12030;50.376;8.762;2023-06-01T09:04:23;22.20;98.00
23703;DHT22;12030;50.376;8.762;2023-06-01T09:06:49;22.50;99.20
23703;DHT22;12030;50.376;8.762;2023-06-01T09:09:14;22.60;99.80
23703;DHT22;12030;50.376;8.762;2023-06-01T09:11:40;22.90;99.90
23703;DHT22;12030;50.376;8.762;2023-06-01T09:14:26;22.90;98.60
23703;DHT22;12030;50.376;8.762;2023-06-01T09:16:52;22.90;97.70
23703;DHT22;12030;50.376;8.762;2023-06-01T09:19:18;23.00;96.30
23703;DHT22;12030;50.376;8.762;2023-06-01T09:21:59;23.00;98.40
23703;DHT22;12030;50.376;8.762;2023-06-01T09:24:26;23.00;97.10
23703;DHT22;12030;50.376;8.762;2023-06-01T09:26:58;23.00;96.90
23703;DHT22;12030;50.376;8.762;2023-06-01T09:29:25;23.00;94.70
23703;DHT22;12030;50.376;8.762;2023-06-01T09:31:52;23.10;96.50
23703;DHT22;12030;50.376;8.762;2023-06-01T09:34:20;23.20;97.10
23703;DHT22;12030;50.376;8.762;2023-06-01T09:36:50;23.40;97.40
23703;DHT22;12030;50.376;8.762;2023-06-01T09:39:18;23.50;97.60
23703;DHT22;12030;50.376;8.762;2023-06-01T09:41:52;23.50;97.70
23703;DHT22;12030;50.376;8.762;2023-06-01T09:44:34;23.40;95.60
23703;DHT22;12030;50.376;8.762;2023-06-01T09:47:08;23.50;95.90
23703;DHT22;12030;50.376;8.762;2023-06-01T09:49:42;23.50;93.10
23703;DHT22;12030;50.376;8.762;2023-06-01T09:52:08;23.60;93.70
23703;DHT22;12030;50.376;8.762;2023-06-01T09:57:08;23.70;93.60
23703;DHT22;12030;50.376;8.762;2023-06-01T09:59:44;23.50;92.20
23703;DHT22;12030;50.376;8.762;2023-06-01T10:02:18;23.60;92.30
23703;DHT22;12030;50.376;8.762;2023-06-01T10:04:51;23.70;91.20
23703;DHT22;12030;50.376;8.762;2023-06-01T10:07:26;23.90;86.70
23703;DHT22;12030;50.376;8.762;2023-06-01T10:09:57;23.80;88.40
23703;DHT22;12030;50.376;8.762;2023-06-01T10:12:24;23.90;91.40
23703;DHT22;12030;50.376;8.762;2023-06-01T10:14:51;24.10;93.20
23703;DHT22;12030;50.376;8.762;2023-06-01T10:17:18;24.10;92.00
23703;DHT22;12030;50.376;8.762;2023-06-01T10:19:44;24.20;92.60
23703;DHT22;12030;50.376;8.762;2023-06-01T10:22:11;24.30;91.10
23703;DHT22;12030;50.376;8.762;2023-06-01T10:24:38;24.20;92.30
23703;DHT22;12030;50.376;8.762;2023-06-01T10:27:10;24.20;90.60
23703;DHT22;12030;50.376;8.762;2023-06-01T10:29:37;24.30;91.50
23703;DHT22;12030;50.376;8.762;2023-06-01T10:32:03;24.50;91.10
23703;DHT22;12030;50.376;8.762;2023-06-01T10:34:43;24.50;86.30
23703;DHT22;12030;50.376;8.762;2023-06-01T10:37:16;24.50;88.20
23703;DHT22;12030;50.376;8.762;2023-06-01T10:39:42;24.50;89.10
23703;DHT22;12030;50.376;8.762;2023-06-01T10:52:35;24.70;89.60
23703;DHT22;12030;50.376;8.762;2023-06-01T11:05:46;24.80;82.20
23703;DHT22;12030;50.376;8.762;2023-06-01T11:13:18;25.10;80.70
23703;DHT22;12030;50.376;8.762;2023-06-01T11:21:16;25.20;80.30
23703;DHT22;12030;50.376;8.762;2023-06-01T11:23:43;25.20;83.70
23703;DHT22;12030;50.376;8.762;2023-06-01T11:26:13;25.30;82.70
23703;DHT22;12030;50.376;8.762;2023-06-01T11:28:39;25.20;76.10
23703;DHT22;12030;50.376;8.762;2023-06-01T11:31:09;25.30;73.00
23703;DHT22;12030;50.376;8.762;2023-06-01T11:33:38;25.50;74.60
23703;DHT22;12030;50.376;8.762;2023-06-01T11:36:04;25.50;74.00
23703;DHT22;12030;50.376;8.762;2023-06-01T11:38:41;25.60;79.40
23703;DHT22;12030;50.376;8.762;2023-06-01T11:41:07;25.70;78.30
23703;DHT22;12030;50.376;8.762;2023-06-01T11:43:33;25.80;72.90
23703;DHT22;12030;50.376;8.762;2023-06-01T11:46:06;25.70;73.50
23703;DHT22;12030;50.376;8.762;2023-06-01T11:48:33;25.80;72.80
23703;DHT22;12030;50.376;8.762;2023-06-01T11:51:03;26.00;74.60
23703;DHT22;12030;50.376;8.762;2023-06-01T11:53:30;26.20;72.10
23703;DHT22;12030;50.376;8.762;2023-06-01T11:55:58;26.40;75.50
23703;DHT22;12030;50.376;8.762;2023-06-01T11:58:28;26.40;72.30
23703;DHT22;12030;50.376;8.762;2023-06-01T12:00:58;26.70;71.20
23703;DHT22;12030;50.376;8.762;2023-06-01T12:03:24;26.80;66.00
23703;DHT22;12030;50.376;8.762;2023-06-01T12:05:50;26.70;64.90
23703;DHT22;12030;50.376;8.762;2023-06-01T12:08:19;27.00;67.00
23703;DHT22;12030;50.376;8.762;2023-06-01T12:10:46;27.00;67.30
23703;DHT22;12030;50.376;8.762;2023-06-01T12:13:16;27.10;74.00
23703;DHT22;12030;50.376;8.762;2023-06-01T12:15:42;27.00;76.40
23703;DHT22;12030;50.376;8.762;2023-06-01T12:18:08;27.20;71.70
23703;DHT22;12030;50.376;8.762;2023-06-01T12:20:43;27.10;62.10
23703;DHT22;12030;50.376;8.762;2023-06-01T12:23:14;27.20;65.80
23703;DHT22;12030;50.376;8.762;2023-06-01T12:25:54;27.40;65.60
23703;DHT22;12030;50.376;8.762;2023-06-01T12:28:22;27.00;65.20
23703;DHT22;12030;50.376;8.762;2023-06-01T12:30:48;27.30;65.60
23703;DHT22;12030;50.376;8.762;2023-06-01T12:33:33;27.40;66.00
23703;DHT22;12030;50.376;8.762;2023-06-01T12:35:59;27.60;67.30
23703;DHT22;12030;50.376;8.762;2023-06-01T12:38:25;27.60;65.10
23703;DHT22;12030;50.376;8.762;2023-06-01T12:41:08;27.90;68.00
23703;DHT22;12030;50.376;8.762;2023-06-01T12:43:38;28.10;67.20
23703;DHT22;12030;50.376;8.762;2023-06-01T12:46:04;28.30;71.70
23703;DHT22;12030;50.376;8.762;2023-06-01T12:48:34;28.10;64.90
23703;DHT22;12030;50.376;8.762;2023-06-01T12:51:00;28.00;66.40
23703;DHT22;12030;50.376;8.762;2023-06-01T12:53:27;28.30;68.30
23703;DHT22;12030;50.376;8.762;2023-06-01T12:55:53;28.50;67.60
23703;DHT22;12030;50.376;8.762;2023-06-01T12:58:19;28.60;71.80
23703;DHT22;12030;50.376;8.762;2023-06-01T13:00:45;28.80;67.80
23703;DHT22;12030;50.376;8.762;2023-06-01T13:03:11;28.80;70.00
23703;DHT22;12030;50.376;8.762;2023-06-01T13:05:36;28.90;68.80
23703;DHT22;12030;50.376;8.762;2023-06-01T13:08:02;28.50;67.40
23703;DHT22;12030;50.376;8.762;2023-06-01T13:10:28;28.50;67.60
23703;DHT22;12030;50.376;8.762;2023-06-01T13:12:54;28.30;72.20
23703;DHT22;12030;50.376;8.762;2023-06-01T13:15:21;28.30;67.80
23703;DHT22;12030;50.376;8.762;2023-06-01T13:17:46;28.20;68.20
23703;DHT22;12030;50.376;8.762;2023-06-01T13:20:12;28.70;69.30
23703;DHT22;12030;50.376;8.762;2023-06-01T13:22:41;29.00;67.50
23703;DHT22;12030;50.376;8.762;2023-06-01T13:25:08;29.30;71.10
23703;DHT22;12030;50.376;8.762;2023-06-01T13:27:34;29.50;72.60
23703;DHT22;12030;50.376;8.762;2023-06-01T13:30:00;29.40;65.10
23703;DHT22;12030;50.376;8.762;2023-06-01T13:32:26;29.50;66.40
23703;DHT22;12030;50.376;8.762;2023-06-01T13:34:52;29.40;65.30
23703;DHT22;12030;50.376;8.762;2023-06-01T13:37:18;29.40;63.80
23703;DHT22;12030;50.376;8.762;2023-06-01T13:39:44;29.40;65.20
23703;DHT22;12030;50.376;8.762;2023-06-01T13:42:09;28.90;64.90
23703;DHT22;12030;50.376;8.762;2023-06-01T13:44:35;29.10;65.60
23703;DHT22;12030;50.376;8.762;2023-06-01T13:47:00;29.30;64.50
23703;DHT22;12030;50.376;8.762;2023-06-01T13:49:27;29.30;63.50
23703;DHT22;12030;50.376;8.762;2023-06-01T13:51:52;29.10;63.30
23703;DHT22;12030;50.376;8.762;2023-06-01T13:54:18;29.20;65.20
23703;DHT22;12030;50.376;8.762;2023-06-01T13:56:44;29.70;64.20
23703;DHT22;12030;50.376;8.762;2023-06-01T13:59:09;29.90;63.80
23703;DHT22;12030;50.376;8.762;2023-06-01T14:01:35;30.00;64.20
23703;DHT22;12030;50.376;8.762;2023-06-01T14:04:01;29.80;63.30
23703;DHT22;12030;50.376;8.762;2023-06-01T14:06:26;29.50;62.30
23703;DHT22;12030;50.376;8.762;2023-06-01T14:08:52;29.50;62.80
23703;DHT22;12030;50.376;8.762;2023-06-01T14:11:17;30.10;62.40
23703;DHT22;12030;50.376;8.762;2023-06-01T14:13:43;30.50;63.60
23703;DHT22;12030;50.376;8.762;2023-06-01T14:16:09;30.50;61.30
23703;DHT22;12030;50.376;8.762;2023-06-01T14:18:34;30.60;62.30
23703;DHT22;12030;50.376;8.762;2023-06-01T14:21:00;31.00;63.40
23703;DHT22;12030;50.376;8.762;2023-06-01T14:23:26;31.10;63.60
23703;DHT22;12030;50.376;8.762;2023-06-01T14:25:51;30.30;61.10
23703;DHT22;12030;50.376;8.762;2023-06-01T14:28:17;30.20;62.30
23703;DHT22;12030;50.376;8.762;2023-06-01T14:30:42;30.30;64.50
23703;DHT22;12030;50.376;8.762;2023-06-01T14:33:08;30.20;62.00
23703;DHT22;12030;50.376;8.762;2023-06-01T14:35:33;30.00;62.10
23703;DHT22;12030;50.376;8.762;2023-06-01T14:37:59;30.20;62.10
23703;DHT22;12030;50.376;8.762;2023-06-01T14:40:24;30.30;62.20
23703;DHT22;12030;50.376;8.762;2023-06-01T14:42:50;30.30;59.30
23703;DHT22;12030;50.376;8.762;2023-06-01T14:45:16;30.60;62.30
23703;DHT22;12030;50.376;8.762;2023-06-01T14:47:42;31.00;59.80
23703;DHT22;12030;50.376;8.762;2023-06-01T14:50:08;31.40;59.60
23703;DHT22;12030;50.376;8.762;2023-06-01T14:52:33;31.50;59.40
23703;DHT22;12030;50.376;8.762;2023-06-01T14:54:59;31.20;59.50
23703;DHT22;12030;50.376;8.762;2023-06-01T14:57:25;31.40;60.90
23703;DHT22;12030;50.376;8.762;2023-06-01T14:59:50;31.50;62.70
23703;DHT22;12030;50.376;8.762;2023-06-01T15:02:16;31.20;60.80
23703;DHT22;12030;50.376;8.762;2023-06-01T15:04:41;31.30;59.00
23703;DHT22;12030;50.376;8.762;2023-06-01T15:07:08;31.50;59.10
23703;DHT22;12030;50.376;8.762;2023-06-01T15:09:34;31.40;57.70
23703;DHT22;12030;50.376;8.762;2023-06-01T15:11:59;31.50;56.60
23703;DHT22;12030;50.376;8.762;2023-06-01T15:14:25;31.80;56.50
23703;DHT22;12030;50.376;8.762;2023-06-01T15:16:50;31.20;56.40
23703;DHT22;12030;50.376;8.762;2023-06-01T15:19:16;31.00;58.10
23703;DHT22;12030;50.376;8.762;2023-06-01T15:21:41;30.60;59.00
23703;DHT22;12030;50.376;8.762;2023-06-01T15:24:07;30.20;59.90
23703;DHT22;12030;50.376;8.762;2023-06-01T15:26:32;30.20;60.20
23703;DHT22;12030;50.376;8.762;2023-06-01T15:28:58;30.10;62.20
23703;DHT22;12030;50.376;8.762;2023-06-01T15:31:24;29.80;61.40
23703;DHT22;12030;50.376;8.762;2023-06-01T15:33:50;29.40;60.90
23703;DHT22;12030;50.376;8.762;2023-06-01T15:36:15;28.90;61.20
23703;DHT22;12030;50.376;8.762;2023-06-01T15:38:41;28.30;60.90
23703;DHT22;12030;50.376;8.762;2023-06-01T15:41:07;28.10;62.40
23703;DHT22;12030;50.376;8.762;2023-06-01T15:43:35;27.40;62.00
23703;DHT22;12030;50.376;8.762;2023-06-01T15:46:03;26.80;63.70
23703;DHT22;12030;50.376;8.762;2023-06-01T15:48:28;26.50;63.50
23703;DHT22;12030;50.376;8.762;2023-06-01T15:50:54;26.50;64.80
23703;DHT22;12030;50.376;8.762;2023-06-01T15:53:19;26.20;66.20
23703;DHT22;12030;50.376;8.762;2023-06-01T15:55:46;26.50;65.60
23703;DHT22;12030;50.376;8.762;2023-06-01T15:58:12;26.80;64.70
23703;DHT22;12030;50.376;8.762;2023-06-01T16:00:37;26.70;64.70
23703;DHT22;12030;50.376;8.762;2023-06-01T16:03:03;26.70;64.80
23703;DHT22;12030;50.376;8.762;2023-06-01T16:05:30;26.30;65.10
23703;DHT22;12030;50.376;8.762;2023-06-01T16:07:56;26.10;66.20
23703;DHT22;12030;50.376;8.762;2023-06-01T16:10:21;26.20;66.60
23703;DHT22;12030;50.376;8.762;2023-06-01T16:12:47;26.80;67.20